S.arturo — ILJH — position and weather

sailwx.info

Track history (hours):
 
Tides and Currents Weather Stations Pressure Air Temp Water Temp Dewpoint Dewpoint Depression Visibility Wind Speed Wind Dir Waves Ship Positions

S.arturo

Last reported at 2018-Jan-23 12:46 UTC. Time now 2018-Jan-23 16:12 UTC.
Position N 39°44' E 016°35'.

Type: Fishing. MMSI: 247133560.

Date/timePositionNaut miles runAvg speedWind from/ knotsBaromVisibWave heightAir tempDewpointWater temp
2018-Jan-23 12:46N 39°44' E 016°35'3 2.6
2018-Jan-23 11:40N 39°41' E 016°36'1 2.8
2018-Jan-23 11:28N 39°41' E 016°37'1 2.7
2018-Jan-23 10:58N 39°40' E 016°39'1 2.2
2018-Jan-23 10:29N 39°40' E 016°40'8 2.3
2018-Jan-23 07:08N 39°47' E 016°37'9 3.1
2018-Jan-23 04:22N 39°55' E 016°40'1 1.3
2018-Jan-23 03:48N 39°56' E 016°40'3 2.7
2018-Jan-23 02:42N 39°59' E 016°41'5 0.9
2018-Jan-22 21:35N 40°03' E 016°43'  
Track history (hours):
 
Tides and Currents Weather Stations Pressure Air Temp Water Temp Dewpoint Dewpoint Depression Visibility Wind Speed Wind Dir Waves Ship Positions

S.arturo

Last reported at 2018-Jan-23 12:46 UTC. Time now 2018-Jan-23 16:12 UTC.
Position N 39°44' E 016°35'.

Type: Fishing. MMSI: 247133560.

Date/timePositionNaut miles runAvg speedWind from/ knotsBaromVisibWave heightAir tempDewpointWater temp
2018-Jan-23 12:46N 39°44' E 016°35'3 2.6
2018-Jan-23 11:40N 39°41' E 016°36'1 2.8
2018-Jan-23 11:28N 39°41' E 016°37'1 2.7
2018-Jan-23 10:58N 39°40' E 016°39'1 2.2
2018-Jan-23 10:29N 39°40' E 016°40'8 2.3
2018-Jan-23 07:08N 39°47' E 016°37'9 3.1
2018-Jan-23 04:22N 39°55' E 016°40'1 1.3
2018-Jan-23 03:48N 39°56' E 016°40'3 2.7
2018-Jan-23 02:42N 39°59' E 016°41'5 0.9
2018-Jan-22 21:35N 40°03' E 016°43'  

Dump ship's entire track history